createdAt,value
2017-10-12T00:00:41.698Z,0
2017-10-12T00:01:41.992Z,0
2017-10-12T00:02:41.975Z,0
2017-10-12T00:03:41.944Z,0
2017-10-12T00:04:41.931Z,0
2017-10-12T00:05:41.906Z,0
2017-10-12T00:06:41.873Z,0
2017-10-12T00:07:41.850Z,0
2017-10-12T00:08:41.828Z,0
2017-10-12T00:09:41.495Z,0
2017-10-12T00:10:41.792Z,0
2017-10-12T00:11:41.766Z,0
2017-10-12T00:12:41.752Z,0
2017-10-12T00:13:41.732Z,0
2017-10-12T00:14:41.765Z,0
2017-10-12T00:15:41.676Z,0
2017-10-12T00:16:41.681Z,0
2017-10-12T00:17:41.636Z,0
2017-10-12T00:18:41.617Z,0
2017-10-12T00:19:41.587Z,0
2017-10-12T00:20:41.578Z,0
2017-10-12T00:21:41.545Z,0
2017-10-12T00:22:41.522Z,0
2017-10-12T00:23:41.510Z,0
2017-10-12T00:24:41.477Z,0
2017-10-12T00:25:41.456Z,0
2017-10-12T00:26:41.454Z,0
2017-10-12T00:27:41.429Z,0
2017-10-12T00:28:41.402Z,0
2017-10-12T00:29:41.378Z,0
2017-10-12T00:30:41.355Z,0
2017-10-12T00:31:41.336Z,0
2017-10-12T00:32:41.325Z,0
2017-10-12T00:33:41.282Z,0
2017-10-12T00:34:41.266Z,0
2017-10-12T00:35:41.246Z,0
2017-10-12T00:36:41.224Z,0
2017-10-12T00:37:41.203Z,0
2017-10-12T00:38:41.189Z,0
2017-10-12T00:39:41.156Z,0
2017-10-12T00:40:41.133Z,0
2017-10-12T00:41:41.110Z,0
2017-10-12T00:42:41.092Z,0
2017-10-12T00:43:41.061Z,0
2017-10-12T00:44:41.052Z,0
2017-10-12T00:45:40.389Z,0
2017-10-12T00:46:41.007Z,0
2017-10-12T00:47:40.984Z,0
2017-10-12T00:48:40.642Z,0
2017-10-12T00:49:40.937Z,0
2017-10-12T00:50:40.920Z,0
2017-10-12T00:51:40.905Z,0
2017-10-12T00:52:40.866Z,0
2017-10-12T00:53:40.853Z,0
2017-10-12T00:54:40.500Z,0
2017-10-12T00:55:40.821Z,0
2017-10-12T00:56:40.781Z,0
2017-10-12T00:57:40.763Z,0
2017-10-12T00:58:40.737Z,0
2017-10-12T00:59:40.714Z,0
2017-10-12T01:00:40.691Z,0
2017-10-12T01:01:40.682Z,0
2017-10-12T01:02:40.652Z,0
2017-10-12T01:03:39.988Z,0
2017-10-12T01:04:40.608Z,0
2017-10-12T01:05:40.586Z,0
2017-10-12T01:06:40.569Z,0
2017-10-12T01:07:40.532Z,0
2017-10-12T01:08:40.527Z,0
2017-10-12T01:09:40.498Z,0
2017-10-12T01:10:40.154Z,0
2017-10-12T01:11:40.442Z,0
2017-10-12T01:12:40.426Z,0
2017-10-12T01:13:40.425Z,0
2017-10-12T01:14:40.383Z,0
2017-10-12T01:15:40.348Z,0
2017-10-12T01:16:40.340Z,0
2017-10-12T01:17:40.316Z,0
2017-10-12T01:18:39.969Z,0
2017-10-12T01:19:40.264Z,0
2017-10-12T01:20:40.254Z,0
2017-10-12T01:21:39.897Z,0
2017-10-12T01:22:40.191Z,0
2017-10-12T01:23:40.178Z,0
2017-10-12T01:24:39.833Z,0
2017-10-12T01:25:39.818Z,0
2017-10-12T01:26:40.155Z,0
2017-10-12T01:27:40.086Z,0
2017-10-12T01:28:40.076Z,0
2017-10-12T01:29:40.044Z,0
2017-10-12T01:30:40.028Z,0
2017-10-12T01:31:39.999Z,0
2017-10-12T01:32:39.985Z,0
2017-10-12T01:33:39.986Z,0
2017-10-12T01:34:39.934Z,0
2017-10-12T01:35:39.588Z,0
2017-10-12T01:36:39.891Z,0
2017-10-12T01:37:39.552Z,0
2017-10-12T01:38:39.839Z,0
2017-10-12T01:39:39.815Z,0
2017-10-12T01:40:39.802Z,0
2017-10-12T01:41:39.453Z,0
2017-10-12T01:42:39.773Z,0
2017-10-12T01:43:39.723Z,0
2017-10-12T01:44:39.712Z,0
2017-10-12T01:45:39.676Z,0
2017-10-12T01:46:39.352Z,0
2017-10-12T01:47:39.645Z,0
2017-10-12T01:48:39.618Z,0
2017-10-12T01:49:39.599Z,0
2017-10-12T01:50:39.589Z,0
2017-10-12T01:51:39.544Z,0
2017-10-12T01:52:39.529Z,0
2017-10-12T01:53:39.502Z,0
2017-10-12T01:54:39.172Z,0
2017-10-12T01:55:39.469Z,0
2017-10-12T01:56:39.428Z,0
2017-10-12T01:57:39.433Z,0
2017-10-12T01:58:39.404Z,0
2017-10-12T01:59:39.363Z,0
2017-10-12T02:00:39.348Z,0
2017-10-12T02:01:39.330Z,0
2017-10-12T02:02:39.301Z,0
2017-10-12T02:03:39.280Z,0
2017-10-12T02:04:39.245Z,0
2017-10-12T02:05:39.245Z,0
2017-10-12T02:06:39.216Z,0
2017-10-12T02:07:39.189Z,0
2017-10-12T02:08:39.168Z,0
2017-10-12T02:09:39.142Z,0
2017-10-12T02:10:39.126Z,0
2017-10-12T02:11:38.787Z,0
2017-10-12T02:12:38.765Z,0
2017-10-12T02:13:39.052Z,0
2017-10-12T02:14:39.031Z,0
2017-10-12T02:15:39.009Z,0
2017-10-12T02:16:39.004Z,0
2017-10-12T02:17:38.961Z,0
2017-10-12T02:18:38.956Z,0
2017-10-12T02:19:38.908Z,0
2017-10-12T02:20:38.886Z,0
2017-10-12T02:21:38.235Z,0
2017-10-12T02:22:38.843Z,0
2017-10-12T02:23:38.555Z,0
2017-10-12T02:24:38.808Z,0
2017-10-12T02:25:38.777Z,0
2017-10-12T02:26:38.776Z,0
2017-10-12T02:27:38.741Z,0
2017-10-12T02:28:38.715Z,0
2017-10-12T02:29:38.697Z,0
2017-10-12T02:30:38.717Z,0
2017-10-12T02:31:38.331Z,0
2017-10-12T02:32:38.637Z,0
2017-10-12T02:33:38.615Z,0
2017-10-12T02:34:38.598Z,0
2017-10-12T02:35:38.558Z,0
2017-10-12T02:36:38.542Z,0
2017-10-12T02:37:38.531Z,0
2017-10-12T02:38:38.519Z,0
2017-10-12T02:39:38.497Z,0
2017-10-12T02:40:38.134Z,0
2017-10-12T02:41:38.443Z,0
2017-10-12T02:42:38.419Z,0
2017-10-12T02:43:38.378Z,0
2017-10-12T02:44:38.363Z,0
2017-10-12T02:45:38.346Z,0
2017-10-12T02:46:37.984Z,0
2017-10-12T02:47:38.300Z,0
2017-10-12T02:48:38.270Z,0
2017-10-12T02:49:38.278Z,0
2017-10-12T02:50:38.221Z,0
2017-10-12T02:51:38.211Z,0
2017-10-12T02:52:38.179Z,0
2017-10-12T02:53:38.170Z,0
2017-10-12T02:54:37.821Z,0
2017-10-12T02:55:38.113Z,0
2017-10-12T02:56:38.093Z,0
2017-10-12T02:57:38.098Z,0
2017-10-12T02:58:38.043Z,0
2017-10-12T02:59:38.023Z,0
2017-10-12T03:00:38.013Z,0
2017-10-12T03:01:37.978Z,0
2017-10-12T03:02:37.959Z,0
2017-10-12T03:03:37.942Z,0
2017-10-12T03:04:37.921Z,0
2017-10-12T03:05:37.894Z,0
2017-10-12T03:06:37.869Z,0
2017-10-12T03:07:37.513Z,0
2017-10-12T03:08:37.827Z,0
2017-10-12T03:09:37.809Z,0
2017-10-12T03:10:37.782Z,0
2017-10-12T03:11:37.756Z,0
2017-10-12T03:12:37.728Z,0
2017-10-12T03:13:37.405Z,0
2017-10-12T03:14:37.714Z,0
2017-10-12T03:15:37.664Z,0
2017-10-12T03:16:37.641Z,0
2017-10-12T03:17:37.299Z,0
2017-10-12T03:18:37.600Z,0
2017-10-12T03:19:37.600Z,0
2017-10-12T03:20:37.562Z,0
2017-10-12T03:21:37.537Z,0
2017-10-12T03:22:37.531Z,0
2017-10-12T03:23:37.501Z,0
2017-10-12T03:24:37.152Z,0
2017-10-12T03:25:37.450Z,0
2017-10-12T03:26:37.429Z,0
2017-10-12T03:27:37.407Z,0
2017-10-12T03:28:37.382Z,0
2017-10-12T03:29:37.046Z,0
2017-10-12T03:30:37.341Z,0
2017-10-12T03:31:37.310Z,0
2017-10-12T03:32:37.295Z,0
2017-10-12T03:33:36.950Z,0
2017-10-12T03:34:36.920Z,0
2017-10-12T03:35:36.912Z,0
2017-10-12T03:36:37.204Z,0
2017-10-12T03:37:37.179Z,0
2017-10-12T03:38:37.152Z,0
2017-10-12T03:39:37.139Z,0
2017-10-12T03:40:37.110Z,0
2017-10-12T03:41:37.086Z,0
2017-10-12T03:42:37.062Z,0
2017-10-12T03:43:37.069Z,0
2017-10-12T03:44:37.021Z,0
2017-10-12T03:45:36.993Z,0
2017-10-12T03:46:36.982Z,0
2017-10-12T03:47:36.973Z,0
2017-10-12T03:48:36.936Z,0
2017-10-12T03:49:36.905Z,0
2017-10-12T03:50:36.564Z,0
2017-10-12T03:51:36.865Z,0
2017-10-12T03:52:36.844Z,0
2017-10-12T03:53:36.838Z,0
2017-10-12T03:54:36.815Z,0
2017-10-12T03:55:36.447Z,0
2017-10-12T03:56:36.760Z,0
2017-10-12T03:57:36.743Z,0
2017-10-12T03:58:36.706Z,0
2017-10-12T03:59:36.687Z,0
2017-10-12T04:00:36.662Z,0
2017-10-12T04:01:36.652Z,0
2017-10-12T04:02:36.613Z,0
2017-10-12T04:03:36.591Z,0
2017-10-12T04:04:36.560Z,0
2017-10-12T04:05:36.553Z,0
2017-10-12T04:06:36.516Z,0
2017-10-12T04:07:36.500Z,0
2017-10-12T04:08:36.484Z,0
2017-10-12T04:09:36.478Z,0
2017-10-12T04:10:36.433Z,0
2017-10-12T04:11:36.423Z,0
2017-10-12T04:12:36.082Z,0
2017-10-12T04:13:36.045Z,0
2017-10-12T04:14:36.344Z,0
2017-10-12T04:15:36.337Z,0
2017-10-12T04:16:35.973Z,0
2017-10-12T04:17:36.275Z,0
2017-10-12T04:18:36.299Z,0
2017-10-12T04:19:36.233Z,0
2017-10-12T04:20:36.224Z,0
2017-10-12T04:21:36.201Z,0
2017-10-12T04:22:36.162Z,0
2017-10-12T04:23:35.828Z,0
2017-10-12T04:24:36.128Z,0
2017-10-12T04:25:36.101Z,0
2017-10-12T04:26:36.084Z,0
2017-10-12T04:27:36.050Z,0
2017-10-12T04:28:36.025Z,0
2017-10-12T04:29:35.701Z,0
2017-10-12T04:30:35.668Z,0
2017-10-12T04:31:35.960Z,0
2017-10-12T04:32:35.619Z,0
2017-10-12T04:33:35.913Z,0
2017-10-12T04:34:35.884Z,0
2017-10-12T04:35:35.862Z,0
2017-10-12T04:36:35.839Z,0
2017-10-12T04:37:35.827Z,0
2017-10-12T04:38:35.797Z,0
2017-10-12T04:39:35.775Z,0
2017-10-12T04:40:35.752Z,0
2017-10-12T04:41:35.731Z,0
2017-10-12T04:42:35.714Z,0
2017-10-12T04:43:35.373Z,0
2017-10-12T04:44:35.685Z,0
2017-10-12T04:45:35.328Z,0
2017-10-12T04:46:35.301Z,0
2017-10-12T04:47:35.612Z,0
2017-10-12T04:48:35.603Z,0
2017-10-12T04:49:35.554Z,0
2017-10-12T04:50:35.532Z,0
2017-10-12T04:51:35.190Z,0
2017-10-12T04:52:35.512Z,0
2017-10-12T04:53:35.468Z,0
2017-10-12T04:54:34.805Z,0
2017-10-12T04:55:35.427Z,0
2017-10-12T04:56:35.075Z,0
2017-10-12T04:57:35.362Z,0
2017-10-12T04:58:35.354Z,0
2017-10-12T04:59:35.347Z,0
2017-10-12T05:00:35.322Z,0
2017-10-12T05:01:35.295Z,0
2017-10-12T05:02:34.946Z,0
2017-10-12T05:03:34.950Z,0
2017-10-12T05:04:35.223Z,0
2017-10-12T05:05:34.871Z,0
2017-10-12T05:06:34.847Z,0
2017-10-12T05:07:35.136Z,0
2017-10-12T05:08:35.142Z,0
2017-10-12T05:09:35.107Z,0
2017-10-12T05:10:35.068Z,0
2017-10-12T05:11:35.051Z,0
2017-10-12T05:12:35.037Z,0
2017-10-12T05:13:35.004Z,0
2017-10-12T05:14:34.665Z,0
2017-10-12T05:15:34.969Z,0
2017-10-12T05:16:34.930Z,0
2017-10-12T05:17:34.908Z,0
2017-10-12T05:18:34.903Z,0
2017-10-12T05:19:34.867Z,0
2017-10-12T05:20:34.850Z,0
2017-10-12T05:21:34.512Z,0
2017-10-12T05:22:34.490Z,0
2017-10-12T05:23:34.466Z,0
2017-10-12T05:24:34.746Z,0
2017-10-12T05:25:34.765Z,0
2017-10-12T05:26:34.710Z,0
2017-10-12T05:27:34.382Z,0
2017-10-12T05:28:34.665Z,0
2017-10-12T05:29:34.634Z,0
2017-10-12T05:30:34.621Z,0
2017-10-12T05:31:34.279Z,0
2017-10-12T05:32:34.252Z,0
2017-10-12T05:33:34.567Z,0
2017-10-12T05:34:34.532Z,0
2017-10-12T05:35:34.185Z,0
2017-10-12T05:36:34.183Z,0
2017-10-12T05:37:34.142Z,0
2017-10-12T05:38:34.438Z,0
2017-10-12T05:39:34.417Z,0
2017-10-12T05:40:34.400Z,0
2017-10-12T05:41:34.364Z,0
2017-10-12T05:42:34.348Z,0
2017-10-12T05:43:34.319Z,0
2017-10-12T05:44:34.302Z,5
2017-10-12T05:45:34.269Z,5
2017-10-12T05:46:34.256Z,5
2017-10-12T05:47:34.230Z,5
2017-10-12T05:48:34.210Z,5
2017-10-12T05:49:34.182Z,10
2017-10-12T05:50:34.173Z,10
2017-10-12T05:51:34.136Z,10
2017-10-12T05:52:34.121Z,10
2017-10-12T05:53:34.095Z,10
2017-10-12T05:54:34.100Z,15
2017-10-12T05:55:34.061Z,15
2017-10-12T05:56:33.734Z,20
2017-10-12T05:57:34.006Z,20
2017-10-12T05:58:33.978Z,25
2017-10-12T05:59:33.961Z,25
2017-10-12T06:00:33.934Z,30
2017-10-12T06:01:33.913Z,30
2017-10-12T06:02:33.909Z,35
2017-10-12T06:03:33.868Z,35
2017-10-12T06:04:33.859Z,40
2017-10-12T06:05:33.839Z,40
2017-10-12T06:06:33.483Z,45
2017-10-12T06:07:33.778Z,50
2017-10-12T06:08:33.763Z,50
2017-10-12T06:09:33.742Z,50
2017-10-12T06:10:33.705Z,50
2017-10-12T06:11:33.376Z,55
2017-10-12T06:12:33.674Z,65
2017-10-12T06:13:33.640Z,55
2017-10-12T06:14:33.625Z,60
2017-10-12T06:15:33.273Z,60
2017-10-12T06:16:33.586Z,60
2017-10-12T06:17:33.556Z,60
2017-10-12T06:18:33.210Z,60
2017-10-12T06:19:33.189Z,60
2017-10-12T06:20:33.492Z,60
2017-10-12T06:21:33.473Z,65
2017-10-12T06:22:33.434Z,65
2017-10-12T06:23:33.417Z,70
2017-10-12T06:24:33.400Z,70
2017-10-12T06:25:33.375Z,70
2017-10-12T06:26:33.361Z,75
2017-10-12T06:27:33.324Z,80
2017-10-12T06:28:33.331Z,90
2017-10-12T06:29:33.298Z,90
2017-10-12T06:30:33.263Z,90
2017-10-12T06:31:32.922Z,95
2017-10-12T06:32:33.217Z,90
2017-10-12T06:33:33.195Z,90
2017-10-12T06:34:33.171Z,85
2017-10-12T06:35:33.148Z,90
2017-10-12T06:36:33.124Z,85
2017-10-12T06:37:33.107Z,85
2017-10-12T06:38:33.103Z,85
2017-10-12T06:39:33.053Z,85
2017-10-12T06:40:32.718Z,80
2017-10-12T06:41:32.729Z,80
2017-10-12T06:42:33.012Z,80
2017-10-12T06:43:32.971Z,85
2017-10-12T06:44:32.943Z,90
2017-10-12T06:45:32.602Z,90
2017-10-12T06:46:32.908Z,95
2017-10-12T06:47:32.875Z,95
2017-10-12T06:48:32.865Z,100
2017-10-12T06:49:32.531Z,105
2017-10-12T06:50:32.814Z,110
2017-10-12T06:51:32.791Z,100
2017-10-12T06:52:32.768Z,105
2017-10-12T06:53:32.757Z,95
2017-10-12T06:54:32.425Z,90
2017-10-12T06:55:32.716Z,85
2017-10-12T06:56:32.679Z,85
2017-10-12T06:57:32.663Z,80
2017-10-12T06:58:32.312Z,85
2017-10-12T06:59:32.613Z,85
2017-10-12T07:00:32.593Z,85
2017-10-12T07:01:32.566Z,90
2017-10-12T07:02:32.536Z,90
2017-10-12T07:03:32.199Z,90
2017-10-12T07:04:32.503Z,95
2017-10-12T07:05:32.488Z,105
2017-10-12T07:06:32.450Z,110
2017-10-12T07:07:32.432Z,120
2017-10-12T07:08:32.419Z,120
2017-10-12T07:09:32.393Z,130
2017-10-12T07:10:32.368Z,135
2017-10-12T07:11:32.368Z,145
2017-10-12T07:12:32.321Z,145
2017-10-12T07:13:31.970Z,150
2017-10-12T07:14:32.276Z,150
2017-10-12T07:15:31.932Z,145
2017-10-12T07:16:32.231Z,145
2017-10-12T07:17:32.212Z,135
2017-10-12T07:18:32.192Z,135
2017-10-12T07:19:32.167Z,135
2017-10-12T07:20:32.178Z,130
2017-10-12T07:21:32.122Z,130
2017-10-12T07:22:32.103Z,135
2017-10-12T07:23:31.775Z,140
2017-10-12T07:24:31.734Z,140
2017-10-12T07:25:32.049Z,140
2017-10-12T07:26:32.014Z,145
2017-10-12T07:27:32.001Z,150
2017-10-12T07:28:31.644Z,150
2017-10-12T07:29:31.946Z,150
2017-10-12T07:30:31.613Z,145
2017-10-12T07:31:31.911Z,145
2017-10-12T07:32:31.898Z,140
2017-10-12T07:33:31.859Z,135
2017-10-12T07:34:31.526Z,130
2017-10-12T07:35:31.816Z,130
2017-10-12T07:36:31.785Z,130
2017-10-12T07:37:31.766Z,125
2017-10-12T07:38:31.429Z,120
2017-10-12T07:39:31.735Z,120
2017-10-12T07:40:31.695Z,120
2017-10-12T07:41:31.092Z,125
2017-10-12T07:42:31.650Z,130
2017-10-12T07:43:31.632Z,130
2017-10-12T07:44:31.625Z,135
2017-10-12T07:45:31.601Z,135
2017-10-12T07:46:31.567Z,140
2017-10-12T07:47:31.547Z,140
2017-10-12T07:48:31.205Z,145
2017-10-12T07:49:31.192Z,150
2017-10-12T07:50:31.500Z,165
2017-10-12T07:51:31.148Z,175
2017-10-12T07:52:31.439Z,185
2017-10-12T07:53:31.420Z,185
2017-10-12T07:54:31.402Z,190
2017-10-12T07:55:31.363Z,195
2017-10-12T07:56:31.022Z,195
2017-10-12T07:57:31.335Z,200
2017-10-12T07:58:30.984Z,200
2017-10-12T07:59:31.286Z,195
2017-10-12T08:00:31.254Z,195
2017-10-12T08:01:31.255Z,190
2017-10-12T08:02:30.903Z,190
2017-10-12T08:03:31.207Z,195
2017-10-12T08:04:31.173Z,200
2017-10-12T08:05:30.833Z,210
2017-10-12T08:06:31.137Z,225
2017-10-12T08:07:31.101Z,230
2017-10-12T08:08:31.095Z,235
2017-10-12T08:09:31.082Z,240
2017-10-12T08:10:31.050Z,240
2017-10-12T08:11:31.020Z,245
2017-10-12T08:12:30.998Z,260
2017-10-12T08:13:30.982Z,275
2017-10-12T08:14:30.948Z,285
2017-10-12T08:15:30.941Z,275
2017-10-12T08:16:30.913Z,265
2017-10-12T08:17:30.897Z,260
2017-10-12T08:18:30.870Z,260
2017-10-12T08:19:30.854Z,275
2017-10-12T08:20:30.821Z,300
2017-10-12T08:21:30.484Z,305
2017-10-12T08:22:30.775Z,315
2017-10-12T08:23:30.470Z,325
2017-10-12T08:24:30.425Z,355
2017-10-12T08:25:30.382Z,370
2017-10-12T08:26:30.684Z,360
2017-10-12T08:27:30.692Z,330
2017-10-12T08:28:30.657Z,330
2017-10-12T08:29:30.631Z,355
2017-10-12T08:30:30.613Z,375
2017-10-12T08:31:30.596Z,380
2017-10-12T08:32:30.239Z,340
2017-10-12T08:33:30.549Z,365
2017-10-12T08:34:30.550Z,330
2017-10-12T08:35:30.504Z,305
2017-10-12T08:36:30.193Z,285
2017-10-12T08:37:30.150Z,280
2017-10-12T08:38:30.441Z,380
2017-10-12T08:39:30.422Z,375
2017-10-12T08:40:30.404Z,240
2017-10-12T08:41:30.385Z,245
2017-10-12T08:42:30.353Z,225
2017-10-12T08:43:30.338Z,285
2017-10-12T08:44:30.322Z,325
2017-10-12T08:45:30.302Z,225
2017-10-12T08:46:30.266Z,245
2017-10-12T08:47:30.260Z,275
2017-10-12T08:48:30.241Z,285
2017-10-12T08:49:30.215Z,245
2017-10-12T08:50:29.864Z,245
2017-10-12T08:51:30.170Z,265
2017-10-12T08:52:29.839Z,275
2017-10-12T08:53:30.144Z,280
2017-10-12T08:54:30.111Z,295
2017-10-12T08:55:30.084Z,305
2017-10-12T08:56:30.087Z,255
2017-10-12T08:57:30.069Z,270
2017-10-12T08:58:30.036Z,280
2017-10-12T08:59:30.012Z,235
2017-10-12T09:00:29.980Z,225
2017-10-12T09:01:29.965Z,200
2017-10-12T09:02:29.951Z,200
2017-10-12T09:03:29.935Z,175
2017-10-12T09:04:29.612Z,155
2017-10-12T09:05:29.548Z,165
2017-10-12T09:06:29.866Z,180
2017-10-12T09:07:29.843Z,180
2017-10-12T09:08:29.815Z,180
2017-10-12T09:09:29.795Z,195
2017-10-12T09:10:29.790Z,245
2017-10-12T09:11:29.754Z,260
2017-10-12T09:12:29.728Z,260
2017-10-12T09:13:29.704Z,255
2017-10-12T09:14:29.709Z,265
2017-10-12T09:15:29.351Z,255
2017-10-12T09:16:29.649Z,225
2017-10-12T09:17:29.629Z,205
2017-10-12T09:18:29.613Z,200
2017-10-12T09:19:29.269Z,180
2017-10-12T09:20:29.564Z,200
2017-10-12T09:21:29.216Z,160
2017-10-12T09:22:29.531Z,165
2017-10-12T09:23:29.516Z,155
2017-10-12T09:24:29.477Z,175
2017-10-12T09:25:29.463Z,215
2017-10-12T09:26:29.439Z,320
2017-10-12T09:27:29.093Z,260
2017-10-12T09:28:29.436Z,270
2017-10-12T09:29:29.369Z,295
2017-10-12T09:30:29.351Z,210
2017-10-12T09:31:29.325Z,170
2017-10-12T09:32:29.306Z,170
2017-10-12T09:33:28.968Z,205
2017-10-12T09:34:29.292Z,195
2017-10-12T09:35:29.239Z,210
2017-10-12T09:36:29.229Z,260
2017-10-12T09:37:29.195Z,295
2017-10-12T09:38:29.176Z,250
2017-10-12T09:39:29.157Z,255
2017-10-12T09:40:29.171Z,260
2017-10-12T09:41:29.138Z,270
2017-10-12T09:42:29.099Z,215
2017-10-12T09:43:29.132Z,205
2017-10-12T09:44:28.094Z,220
2017-10-12T09:45:29.044Z,250
2017-10-12T09:46:29.035Z,245
2017-10-12T09:47:29.006Z,255
2017-10-12T09:48:28.972Z,270
2017-10-12T09:49:28.624Z,270
2017-10-12T09:50:28.931Z,300
2017-10-12T09:51:28.914Z,275
2017-10-12T09:52:28.889Z,285
2017-10-12T09:53:28.870Z,255
2017-10-12T09:54:28.843Z,235
2017-10-12T09:55:28.815Z,250
2017-10-12T09:56:28.819Z,270
2017-10-12T09:57:28.459Z,295
2017-10-12T09:58:28.441Z,300
2017-10-12T09:59:28.724Z,290
2017-10-12T10:00:28.713Z,285
2017-10-12T10:01:28.506Z,290
2017-10-12T10:02:28.696Z,325
2017-10-12T10:03:28.666Z,340
2017-10-12T10:04:28.640Z,330
2017-10-12T10:05:28.616Z,295
2017-10-12T10:06:28.266Z,280
2017-10-12T10:07:28.254Z,285
2017-10-12T10:08:28.545Z,270
2017-10-12T10:09:28.516Z,255
2017-10-12T10:10:28.183Z,245
2017-10-12T10:11:28.164Z,250
2017-10-12T10:12:28.465Z,260
2017-10-12T10:13:28.440Z,270
2017-10-12T10:14:28.420Z,275
2017-10-12T10:15:28.408Z,295
2017-10-12T10:16:28.367Z,310
2017-10-12T10:17:28.031Z,300
2017-10-12T10:18:28.343Z,300
2017-10-12T10:19:28.336Z,300
2017-10-12T10:20:28.287Z,320
2017-10-12T10:21:28.270Z,325
2017-10-12T10:22:28.248Z,330
2017-10-12T10:23:28.226Z,305
2017-10-12T10:24:27.890Z,285
2017-10-12T10:25:28.207Z,295
2017-10-12T10:26:28.168Z,320
2017-10-12T10:27:28.144Z,325
2017-10-12T10:28:28.125Z,330
2017-10-12T10:29:28.098Z,340
2017-10-12T10:30:28.092Z,330
2017-10-12T10:31:28.064Z,340
2017-10-12T10:32:28.042Z,340
2017-10-12T10:33:28.019Z,330
2017-10-12T10:34:28.003Z,320
2017-10-12T10:35:27.979Z,295
2017-10-12T10:36:27.628Z,315
2017-10-12T10:37:27.939Z,355
2017-10-12T10:38:27.917Z,375
2017-10-12T10:39:27.910Z,390
2017-10-12T10:40:27.905Z,385
2017-10-12T10:41:27.863Z,380
2017-10-12T10:42:27.838Z,365
2017-10-12T10:43:27.813Z,355
2017-10-12T10:44:27.789Z,360
2017-10-12T10:45:27.766Z,340
2017-10-12T10:46:27.741Z,350
2017-10-12T10:47:27.720Z,385
2017-10-12T10:48:27.389Z,430
2017-10-12T10:49:27.685Z,375
2017-10-12T10:50:27.676Z,390
2017-10-12T10:51:27.645Z,340
2017-10-12T10:52:27.318Z,295
2017-10-12T10:53:27.600Z,280
2017-10-12T10:54:27.592Z,270
2017-10-12T10:55:27.563Z,280
2017-10-12T10:56:27.545Z,290
2017-10-12T10:57:27.511Z,300
2017-10-12T10:58:27.513Z,315
2017-10-12T10:59:27.478Z,325
2017-10-12T11:00:27.458Z,325
2017-10-12T11:01:27.449Z,320
2017-10-12T11:02:27.115Z,335
2017-10-12T11:03:27.396Z,325
2017-10-12T11:04:27.372Z,330
2017-10-12T11:05:27.356Z,330
2017-10-12T11:06:27.332Z,330
2017-10-12T11:07:27.001Z,335
2017-10-12T11:08:27.300Z,325
2017-10-12T11:09:26.949Z,320
2017-10-12T11:10:27.248Z,265
2017-10-12T11:11:27.234Z,230
2017-10-12T11:12:27.218Z,265
2017-10-12T11:13:26.864Z,305
2017-10-12T11:14:27.167Z,320
2017-10-12T11:15:27.156Z,350
2017-10-12T11:16:27.136Z,360
2017-10-12T11:17:27.096Z,355
2017-10-12T11:18:26.764Z,350
2017-10-12T11:19:27.069Z,345
2017-10-12T11:20:27.041Z,340
2017-10-12T11:21:26.390Z,360
2017-10-12T11:22:27.006Z,360
2017-10-12T11:23:26.658Z,340
2017-10-12T11:24:26.972Z,320
2017-10-12T11:25:26.929Z,310
2017-10-12T11:26:26.912Z,330
2017-10-12T11:27:26.910Z,350
2017-10-12T11:28:26.880Z,360
2017-10-12T11:29:26.537Z,380
2017-10-12T11:30:26.846Z,375
2017-10-12T11:31:26.817Z,360
2017-10-12T11:32:26.796Z,360
2017-10-12T11:33:26.459Z,360
2017-10-12T11:34:26.440Z,355
2017-10-12T11:35:26.738Z,350
2017-10-12T11:36:26.716Z,350
2017-10-12T11:37:26.700Z,350
2017-10-12T11:38:26.036Z,350
2017-10-12T11:39:26.653Z,350
2017-10-12T11:40:26.641Z,345
2017-10-12T11:41:26.619Z,350
2017-10-12T11:42:26.588Z,360
2017-10-12T11:43:26.583Z,355
2017-10-12T11:44:26.235Z,345
2017-10-12T11:45:26.529Z,335
2017-10-12T11:46:26.506Z,330
2017-10-12T11:47:26.487Z,330
2017-10-12T11:48:26.480Z,330
2017-10-12T11:49:26.456Z,325
2017-10-12T11:50:26.435Z,310
2017-10-12T11:51:26.418Z,295
2017-10-12T11:52:26.069Z,290
2017-10-12T11:53:26.364Z,280
2017-10-12T11:54:26.023Z,280
2017-10-12T11:55:26.332Z,285
2017-10-12T11:56:26.304Z,285
2017-10-12T11:57:26.290Z,290
2017-10-12T11:58:26.262Z,290
2017-10-12T11:59:25.926Z,295
2017-10-12T12:00:26.229Z,305
2017-10-12T12:01:25.882Z,310
2017-10-12T12:02:26.184Z,325
2017-10-12T12:03:25.837Z,330
2017-10-12T12:04:26.138Z,330
2017-10-12T12:05:26.126Z,355
2017-10-12T12:06:25.779Z,360
2017-10-12T12:07:26.092Z,360
2017-10-12T12:08:25.743Z,355
2017-10-12T12:09:26.035Z,355
2017-10-12T12:10:26.015Z,335
2017-10-12T12:11:26.028Z,325
2017-10-12T12:12:25.984Z,315
2017-10-12T12:13:25.971Z,290
2017-10-12T12:14:25.935Z,285
2017-10-12T12:15:25.922Z,285
2017-10-12T12:16:25.896Z,285
2017-10-12T12:17:25.871Z,255
2017-10-12T12:18:25.859Z,285
2017-10-12T12:19:25.830Z,310
2017-10-12T12:20:25.801Z,315
2017-10-12T12:21:25.793Z,310
2017-10-12T12:22:25.797Z,305
2017-10-12T12:23:25.758Z,305
2017-10-12T12:24:25.761Z,310
2017-10-12T12:25:25.387Z,320
2017-10-12T12:26:25.690Z,325
2017-10-12T12:27:25.356Z,325
2017-10-12T12:28:25.325Z,320
2017-10-12T12:29:25.631Z,325
2017-10-12T12:30:25.624Z,320
2017-10-12T12:31:25.592Z,315
2017-10-12T12:32:25.570Z,310
2017-10-12T12:33:25.562Z,305
2017-10-12T12:34:25.536Z,300
2017-10-12T12:35:25.505Z,300
2017-10-12T12:36:25.490Z,295
2017-10-12T12:37:25.474Z,300
2017-10-12T12:38:25.443Z,300
2017-10-12T12:39:25.424Z,280
2017-10-12T12:40:25.090Z,235
2017-10-12T12:41:25.393Z,215
2017-10-12T12:42:25.368Z,235
2017-10-12T12:43:25.339Z,225
2017-10-12T12:44:25.333Z,260
2017-10-12T12:45:24.980Z,295
2017-10-12T12:46:25.287Z,300
2017-10-12T12:47:25.262Z,290
2017-10-12T12:48:25.238Z,275
2017-10-12T12:49:25.215Z,275
2017-10-12T12:50:25.197Z,265
2017-10-12T12:51:24.857Z,265
2017-10-12T12:52:24.831Z,265
2017-10-12T12:53:25.132Z,265
2017-10-12T12:54:25.126Z,265
2017-10-12T12:55:25.094Z,265
2017-10-12T12:56:24.762Z,270
2017-10-12T12:57:25.096Z,270
2017-10-12T12:58:25.051Z,270
2017-10-12T12:59:24.699Z,270
2017-10-12T13:00:25.004Z,265
2017-10-12T13:01:24.645Z,255
2017-10-12T13:02:24.636Z,240
2017-10-12T13:03:24.603Z,225
2017-10-12T13:04:24.921Z,215
2017-10-12T13:05:24.915Z,210
2017-10-12T13:06:24.889Z,210
2017-10-12T13:07:24.544Z,210
2017-10-12T13:08:24.828Z,205
2017-10-12T13:09:24.484Z,200
2017-10-12T13:10:24.473Z,195
2017-10-12T13:11:24.767Z,195
2017-10-12T13:12:24.748Z,200
2017-10-12T13:13:24.397Z,200
2017-10-12T13:14:24.714Z,205
2017-10-12T13:15:24.694Z,205
2017-10-12T13:16:24.656Z,205
2017-10-12T13:17:24.638Z,200
2017-10-12T13:18:24.621Z,195
2017-10-12T13:19:24.588Z,190
2017-10-12T13:20:24.586Z,190
2017-10-12T13:21:24.549Z,195
2017-10-12T13:22:24.547Z,195
2017-10-12T13:23:24.536Z,200
2017-10-12T13:24:24.492Z,205
2017-10-12T13:25:24.470Z,235
2017-10-12T13:26:24.501Z,215
2017-10-12T13:27:24.436Z,205
2017-10-12T13:28:24.397Z,195
2017-10-12T13:29:24.375Z,205
2017-10-12T13:30:24.361Z,230
2017-10-12T13:31:24.381Z,215
2017-10-12T13:32:24.326Z,215
2017-10-12T13:33:24.308Z,215
2017-10-12T13:34:24.278Z,225
2017-10-12T13:35:24.262Z,215
2017-10-12T13:36:24.243Z,205
2017-10-12T13:37:24.220Z,200
2017-10-12T13:38:24.207Z,200
2017-10-12T13:39:24.194Z,190
2017-10-12T13:40:23.846Z,190
2017-10-12T13:41:24.157Z,220
2017-10-12T13:42:24.110Z,210
2017-10-12T13:43:24.100Z,210
2017-10-12T13:44:24.072Z,245
2017-10-12T13:45:23.865Z,235
2017-10-12T13:46:24.039Z,220
2017-10-12T13:47:24.022Z,245
2017-10-12T13:48:23.668Z,220
2017-10-12T13:49:23.964Z,205
2017-10-12T13:50:23.649Z,200
2017-10-12T13:51:23.612Z,205
2017-10-12T13:52:23.610Z,200
2017-10-12T13:53:23.881Z,200
2017-10-12T13:54:23.559Z,195
2017-10-12T13:55:23.534Z,190
2017-10-12T13:56:23.508Z,195
2017-10-12T13:57:23.805Z,170
2017-10-12T13:58:23.780Z,225
2017-10-12T13:59:23.460Z,195
2017-10-12T14:00:23.751Z,190
2017-10-12T14:01:23.712Z,175
2017-10-12T14:02:23.067Z,160
2017-10-12T14:03:23.670Z,160
2017-10-12T14:04:23.351Z,175
2017-10-12T14:05:23.631Z,165
2017-10-12T14:06:23.346Z,170
2017-10-12T14:07:23.278Z,185
2017-10-12T14:08:23.706Z,195
2017-10-12T14:09:23.541Z,185
2017-10-12T14:10:23.531Z,170
2017-10-12T14:11:23.207Z,175
2017-10-12T14:12:23.165Z,165